createdAt,value
2018-01-13T00:00:52.408Z,0
2018-01-13T00:02:02.127Z,0
2018-01-13T00:03:11.843Z,0
2018-01-13T00:04:21.294Z,0
2018-01-13T00:05:31.002Z,0
2018-01-13T00:06:40.722Z,0
2018-01-13T00:07:50.434Z,0
2018-01-13T00:08:59.887Z,0
2018-01-13T00:10:09.911Z,0
2018-01-13T00:11:19.882Z,0
2018-01-13T00:12:29.869Z,0
2018-01-13T00:13:39.941Z,0
2018-01-13T00:14:49.916Z,0
2018-01-13T00:15:59.624Z,0
2018-01-13T00:17:09.602Z,0
2018-01-13T00:18:19.578Z,0
2018-01-13T00:19:29.337Z,0
2018-01-13T00:20:39.100Z,0
2018-01-13T00:21:49.077Z,0
2018-01-13T00:22:58.785Z,0
2018-01-13T00:24:08.758Z,0
2018-01-13T00:25:18.731Z,0
2018-01-13T00:26:28.705Z,0
2018-01-13T00:27:38.145Z,0
2018-01-13T00:28:47.861Z,0
2018-01-13T00:29:57.569Z,0
2018-01-13T00:31:07.539Z,0
2018-01-13T00:32:17.258Z,0
2018-01-13T00:33:27.018Z,0
2018-01-13T00:34:36.193Z,0
2018-01-13T00:35:45.717Z,0
2018-01-13T00:36:55.749Z,0
2018-01-13T00:38:05.460Z,0
2018-01-13T00:39:14.907Z,0
2018-01-13T00:40:24.356Z,0
2018-01-13T00:41:34.330Z,0
2018-01-13T00:42:44.405Z,0
2018-01-13T00:43:54.426Z,0
2018-01-13T00:45:04.402Z,0
2018-01-13T00:46:14.373Z,0
2018-01-13T00:47:24.342Z,0
2018-01-13T00:48:34.316Z,0
2018-01-13T00:49:44.075Z,0
2018-01-13T00:50:54.053Z,0
2018-01-13T00:52:03.776Z,0
2018-01-13T00:53:13.750Z,0
2018-01-13T00:54:23.459Z,0
2018-01-13T00:55:33.430Z,0
2018-01-13T00:56:42.872Z,0
2018-01-13T00:57:52.846Z,0
2018-01-13T00:59:02.557Z,0
2018-01-13T01:00:12.267Z,0
2018-01-13T01:01:22.253Z,0
2018-01-13T01:02:31.961Z,0
2018-01-13T01:03:41.670Z,0
2018-01-13T01:04:51.643Z,0
2018-01-13T01:06:01.615Z,0
2018-01-13T01:07:11.056Z,0
2018-01-13T01:08:21.029Z,0
2018-01-13T01:09:31.007Z,0
2018-01-13T01:10:40.450Z,0
2018-01-13T01:11:50.475Z,0
2018-01-13T01:12:59.347Z,0
2018-01-13T01:14:09.320Z,0
2018-01-13T01:15:19.027Z,0
2018-01-13T01:16:29.002Z,0
2018-01-13T01:17:38.710Z,0
2018-01-13T01:18:48.207Z,0
2018-01-13T01:19:57.930Z,0
2018-01-13T01:21:07.640Z,0
2018-01-13T01:22:17.665Z,0
2018-01-13T01:23:27.640Z,0
2018-01-13T01:24:36.825Z,0
2018-01-13T01:25:46.796Z,0
2018-01-13T01:26:56.775Z,0
2018-01-13T01:28:06.490Z,0
2018-01-13T01:29:16.204Z,0
2018-01-13T01:30:26.182Z,0
2018-01-13T01:31:36.204Z,0
2018-01-13T01:32:45.923Z,0
2018-01-13T01:33:55.632Z,0
2018-01-13T01:35:05.606Z,0
2018-01-13T01:36:15.319Z,0
2018-01-13T01:37:25.293Z,0
2018-01-13T01:38:35.006Z,0
2018-01-13T01:39:44.987Z,0
2018-01-13T01:40:54.979Z,0
2018-01-13T01:42:04.426Z,0
2018-01-13T01:43:14.400Z,0
2018-01-13T01:44:23.843Z,0
2018-01-13T01:45:33.814Z,0
2018-01-13T01:46:43.785Z,0
2018-01-13T01:47:53.757Z,0
2018-01-13T01:49:03.730Z,0
2018-01-13T01:50:12.911Z,0
2018-01-13T01:51:22.879Z,0
2018-01-13T01:52:32.596Z,0
2018-01-13T01:53:42.034Z,0
2018-01-13T01:54:52.006Z,0
2018-01-13T01:56:01.980Z,0
2018-01-13T01:57:11.427Z,0
2018-01-13T01:58:21.399Z,0
2018-01-13T01:59:31.369Z,0
2018-01-13T02:00:40.816Z,0
2018-01-13T02:01:50.309Z,0
2018-01-13T02:03:00.018Z,0
2018-01-13T02:04:09.779Z,0
2018-01-13T02:05:18.961Z,0
2018-01-13T02:06:28.938Z,0
2018-01-13T02:07:38.651Z,0
2018-01-13T02:08:48.626Z,0
2018-01-13T02:09:58.657Z,0
2018-01-13T02:11:08.422Z,0
2018-01-13T02:12:18.397Z,0
2018-01-13T02:13:27.840Z,0
2018-01-13T02:14:37.813Z,0
2018-01-13T02:15:47.571Z,0
2018-01-13T02:16:57.015Z,0
2018-01-13T02:18:06.990Z,0
2018-01-13T02:19:16.700Z,0
2018-01-13T02:20:26.673Z,0
2018-01-13T02:21:35.856Z,0
2018-01-13T02:22:45.831Z,0
2018-01-13T02:23:55.802Z,0
2018-01-13T02:25:05.264Z,0
2018-01-13T02:26:14.731Z,0
2018-01-13T02:27:24.721Z,0
2018-01-13T02:28:34.695Z,0
2018-01-13T02:29:44.148Z,0
2018-01-13T02:30:53.868Z,0
2018-01-13T02:32:03.582Z,0
2018-01-13T02:33:13.291Z,0
2018-01-13T02:34:23.270Z,0
2018-01-13T02:35:32.978Z,0
2018-01-13T02:36:42.691Z,0
2018-01-13T02:37:52.404Z,0
2018-01-13T02:39:02.116Z,0
2018-01-13T02:40:11.890Z,0
2018-01-13T02:41:21.863Z,0
2018-01-13T02:42:31.641Z,0
2018-01-13T02:43:41.351Z,0
2018-01-13T02:44:51.436Z,0
2018-01-13T02:46:01.147Z,0
2018-01-13T02:47:10.860Z,0
2018-01-13T02:48:20.835Z,0
2018-01-13T02:49:30.554Z,0
2018-01-13T02:50:40.265Z,0
2018-01-13T02:51:50.242Z,0
2018-01-13T02:52:59.949Z,0
2018-01-13T02:54:09.931Z,0
2018-01-13T02:55:19.907Z,0
2018-01-13T02:56:29.666Z,0
2018-01-13T02:57:39.641Z,0
2018-01-13T02:58:49.350Z,0
2018-01-13T02:59:59.058Z,0
2018-01-13T03:01:09.061Z,0
2018-01-13T03:02:19.038Z,0
2018-01-13T03:03:28.747Z,0
2018-01-13T03:04:38.190Z,0
2018-01-13T03:05:48.164Z,0
2018-01-13T03:06:57.607Z,0
2018-01-13T03:08:07.582Z,0
2018-01-13T03:09:17.290Z,0
2018-01-13T03:10:27.271Z,0
2018-01-13T03:11:37.243Z,0
2018-01-13T03:12:46.956Z,0
2018-01-13T03:13:56.929Z,0
2018-01-13T03:15:06.900Z,0
2018-01-13T03:16:16.614Z,0
2018-01-13T03:17:26.321Z,0
2018-01-13T03:18:36.035Z,0
2018-01-13T03:19:46.155Z,0
2018-01-13T03:20:56.128Z,0
2018-01-13T03:22:05.836Z,0
2018-01-13T03:23:15.286Z,0
2018-01-13T03:24:25.266Z,0
2018-01-13T03:25:34.710Z,0
2018-01-13T03:26:44.421Z,0
2018-01-13T03:27:54.389Z,0
2018-01-13T03:29:04.100Z,0
2018-01-13T03:30:13.820Z,0
2018-01-13T03:31:23.964Z,0
2018-01-13T03:32:33.945Z,0
2018-01-13T03:33:43.650Z,0
2018-01-13T03:34:53.094Z,0
2018-01-13T03:36:03.075Z,0
2018-01-13T03:37:12.568Z,0
2018-01-13T03:38:22.543Z,0
2018-01-13T03:39:32.251Z,0
2018-01-13T03:40:41.961Z,0
2018-01-13T03:41:51.669Z,0
2018-01-13T03:43:01.114Z,0
2018-01-13T03:44:10.892Z,0
2018-01-13T03:45:20.339Z,0
2018-01-13T03:46:30.319Z,0
2018-01-13T03:47:39.761Z,0
2018-01-13T03:48:49.474Z,0
2018-01-13T03:49:59.452Z,0
2018-01-13T03:51:09.427Z,0
2018-01-13T03:52:19.396Z,0
2018-01-13T03:53:29.369Z,0
2018-01-13T03:54:39.073Z,0
2018-01-13T03:55:48.257Z,0
2018-01-13T03:56:58.232Z,0
2018-01-13T03:58:07.945Z,0
2018-01-13T03:59:17.915Z,0
2018-01-13T04:00:27.888Z,0
2018-01-13T04:04:10.338Z,0
2018-01-13T04:05:20.044Z,0
2018-01-13T04:06:30.017Z,0
2018-01-13T04:07:39.202Z,0
2018-01-13T04:08:48.653Z,0
2018-01-13T04:09:58.366Z,0
2018-01-13T04:11:07.814Z,0
2018-01-13T04:12:17.524Z,0
2018-01-13T04:13:27.504Z,0
2018-01-13T04:14:37.479Z,0
2018-01-13T04:15:47.454Z,0
2018-01-13T04:16:57.479Z,0
2018-01-13T04:18:07.190Z,0
2018-01-13T04:19:16.899Z,0
2018-01-13T04:20:26.609Z,0
2018-01-13T04:21:35.527Z,0
2018-01-13T04:22:45.497Z,0
2018-01-13T04:23:55.205Z,0
2018-01-13T04:25:05.174Z,0
2018-01-13T04:26:15.146Z,0
2018-01-13T04:27:25.124Z,0
2018-01-13T04:28:34.567Z,0
2018-01-13T04:29:44.538Z,0
2018-01-13T04:30:54.249Z,0
2018-01-13T04:32:04.224Z,0
2018-01-13T04:33:13.932Z,0
2018-01-13T04:34:23.376Z,0
2018-01-13T04:35:33.357Z,0
2018-01-13T04:36:43.069Z,0
2018-01-13T04:37:53.044Z,0
2018-01-13T04:39:02.493Z,0
2018-01-13T04:40:12.469Z,0
2018-01-13T04:41:22.176Z,0
2018-01-13T04:42:32.149Z,0
2018-01-13T04:43:41.592Z,0
2018-01-13T04:44:51.300Z,0
2018-01-13T04:46:01.067Z,0
2018-01-13T04:47:11.039Z,0
2018-01-13T04:48:20.745Z,0
2018-01-13T04:49:30.458Z,0
2018-01-13T04:50:39.375Z,0
2018-01-13T04:51:49.347Z,0
2018-01-13T04:52:59.368Z,0
2018-01-13T04:54:09.088Z,0
2018-01-13T04:55:19.066Z,0
2018-01-13T04:56:29.048Z,0
2018-01-13T04:57:38.759Z,0
2018-01-13T04:58:48.470Z,0
2018-01-13T04:59:58.451Z,0
2018-01-13T05:01:08.162Z,0
2018-01-13T05:02:18.134Z,0
2018-01-13T05:03:28.108Z,0
2018-01-13T05:04:37.560Z,0
2018-01-13T05:05:47.534Z,0
2018-01-13T05:06:57.504Z,0
2018-01-13T05:08:07.476Z,0
2018-01-13T05:09:16.921Z,0
2018-01-13T05:10:26.895Z,0
2018-01-13T05:11:36.076Z,0
2018-01-13T05:12:46.050Z,0
2018-01-13T05:13:56.032Z,0
2018-01-13T05:15:06.007Z,0
2018-01-13T05:16:15.720Z,0
2018-01-13T05:17:25.695Z,0
2018-01-13T05:18:35.409Z,0
2018-01-13T05:19:45.118Z,0
2018-01-13T05:20:54.825Z,0
2018-01-13T05:22:04.536Z,0
2018-01-13T05:23:14.247Z,0
2018-01-13T05:24:24.219Z,0
2018-01-13T05:25:33.939Z,0
2018-01-13T05:26:43.650Z,0
2018-01-13T05:27:53.095Z,0
2018-01-13T05:29:03.067Z,0
2018-01-13T05:30:12.512Z,0
2018-01-13T05:31:22.233Z,0
2018-01-13T05:32:32.205Z,0
2018-01-13T05:33:41.912Z,0
2018-01-13T05:34:51.883Z,0
2018-01-13T05:36:01.859Z,0
2018-01-13T05:37:11.833Z,0
2018-01-13T05:38:21.278Z,0
2018-01-13T05:39:30.987Z,0
2018-01-13T05:40:40.959Z,0
2018-01-13T05:41:50.404Z,0
2018-01-13T05:42:59.634Z,0
2018-01-13T05:44:09.708Z,0
2018-01-13T05:45:19.681Z,0
2018-01-13T05:46:29.649Z,0
2018-01-13T05:47:39.626Z,0
2018-01-13T05:48:49.334Z,0
2018-01-13T05:49:59.306Z,0
2018-01-13T05:51:09.281Z,0
2018-01-13T05:52:18.997Z,0
2018-01-13T05:53:28.978Z,0
2018-01-13T05:54:38.192Z,0
2018-01-13T05:55:48.164Z,0
2018-01-13T05:56:57.872Z,0
2018-01-13T05:58:07.858Z,0
2018-01-13T05:59:17.832Z,0
2018-01-13T06:00:27.806Z,0
2018-01-13T06:01:37.821Z,0
2018-01-13T06:02:47.800Z,0
2018-01-13T06:03:57.507Z,0
2018-01-13T06:05:07.224Z,0
2018-01-13T06:06:17.194Z,0
2018-01-13T06:07:27.169Z,0
2018-01-13T06:08:36.874Z,0
2018-01-13T06:09:46.856Z,0
2018-01-13T06:10:56.310Z,0
2018-01-13T06:12:05.754Z,0
2018-01-13T06:13:15.724Z,0
2018-01-13T06:14:25.429Z,0
2018-01-13T06:15:35.133Z,0
2018-01-13T06:16:44.843Z,0
2018-01-13T06:17:54.820Z,0
2018-01-13T06:19:04.320Z,0
2018-01-13T06:20:14.028Z,0
2018-01-13T06:21:23.750Z,0
2018-01-13T06:22:33.195Z,0
2018-01-13T06:23:43.167Z,0
2018-01-13T06:24:52.873Z,0
2018-01-13T06:26:02.846Z,0
2018-01-13T06:27:12.555Z,0
2018-01-13T06:28:21.999Z,0
2018-01-13T06:29:31.715Z,0
2018-01-13T06:30:41.781Z,0
2018-01-13T06:31:51.802Z,0
2018-01-13T06:33:01.776Z,0
2018-01-13T06:34:11.749Z,0
2018-01-13T06:35:21.718Z,0
2018-01-13T06:36:31.432Z,0
2018-01-13T06:37:40.879Z,0
2018-01-13T06:38:50.851Z,0
2018-01-13T06:40:00.826Z,0
2018-01-13T06:41:10.014Z,0
2018-01-13T06:42:19.995Z,0
2018-01-13T06:43:29.969Z,0
2018-01-13T06:44:39.682Z,0
2018-01-13T06:45:49.656Z,0
2018-01-13T06:46:59.629Z,0
2018-01-13T06:48:09.603Z,0
2018-01-13T06:49:19.577Z,0
2018-01-13T06:50:29.553Z,0
2018-01-13T06:51:39.265Z,0
2018-01-13T06:52:49.235Z,0
2018-01-13T06:53:59.260Z,0
2018-01-13T06:55:09.237Z,0
2018-01-13T06:56:19.215Z,0
2018-01-13T06:57:29.197Z,0
2018-01-13T06:58:39.183Z,0
2018-01-13T06:59:49.157Z,0
2018-01-13T07:00:59.132Z,0
2018-01-13T07:02:08.899Z,0
2018-01-13T07:03:18.570Z,0
2018-01-13T07:04:28.060Z,0
2018-01-13T07:05:38.034Z,0
2018-01-13T07:06:47.750Z,0
2018-01-13T07:07:57.778Z,0
2018-01-13T07:09:07.762Z,0
2018-01-13T07:10:17.471Z,0
2018-01-13T07:11:27.543Z,0
2018-01-13T07:12:37.251Z,0
2018-01-13T07:13:47.231Z,0
2018-01-13T07:14:57.209Z,0
2018-01-13T07:16:06.925Z,0
2018-01-13T07:17:16.682Z,0
2018-01-13T07:18:26.398Z,0
2018-01-13T07:19:35.581Z,0
2018-01-13T07:20:45.554Z,0
2018-01-13T07:21:55.527Z,0
2018-01-13T07:23:05.498Z,4
2018-01-13T07:24:15.469Z,4
2018-01-13T07:25:25.184Z,4
2018-01-13T07:26:35.199Z,4
2018-01-13T07:27:44.906Z,0
2018-01-13T07:28:55.029Z,4
2018-01-13T07:30:04.740Z,4
2018-01-13T07:31:14.448Z,4
2018-01-13T07:32:24.426Z,8
2018-01-13T07:33:34.141Z,4
2018-01-13T07:34:44.119Z,8
2018-01-13T07:35:54.149Z,8
2018-01-13T07:37:04.123Z,12
2018-01-13T07:38:13.835Z,12
2018-01-13T07:39:23.809Z,12
2018-01-13T07:40:33.253Z,12
2018-01-13T07:41:42.749Z,16
2018-01-13T07:42:52.728Z,16
2018-01-13T07:44:02.171Z,20
2018-01-13T07:45:11.881Z,20
2018-01-13T07:46:21.855Z,28
2018-01-13T07:47:31.827Z,28
2018-01-13T07:48:41.538Z,32
2018-01-13T07:49:51.512Z,40
2018-01-13T07:51:01.497Z,40
2018-01-13T07:52:11.519Z,44
2018-01-13T07:53:21.493Z,48
2018-01-13T07:54:30.941Z,56
2018-01-13T07:55:40.393Z,60
2018-01-13T07:56:50.097Z,68
2018-01-13T07:58:00.071Z,76
2018-01-13T07:59:09.782Z,84
2018-01-13T08:00:19.753Z,92
2018-01-13T08:01:29.726Z,100
2018-01-13T08:02:39.436Z,104
2018-01-13T08:03:48.931Z,116
2018-01-13T08:04:58.907Z,120
2018-01-13T08:06:08.885Z,132
2018-01-13T08:07:18.860Z,140
2018-01-13T08:08:28.567Z,152
2018-01-13T08:09:38.061Z,168
2018-01-13T08:10:48.033Z,180
2018-01-13T08:11:57.479Z,192
2018-01-13T08:13:07.190Z,204
2018-01-13T08:14:16.898Z,220
2018-01-13T08:15:26.878Z,236
2018-01-13T08:16:36.599Z,252
2018-01-13T08:17:46.311Z,268
2018-01-13T08:18:55.757Z,292
2018-01-13T08:20:05.206Z,308
2018-01-13T08:21:15.185Z,328
2018-01-13T08:22:25.157Z,348
2018-01-13T08:23:35.130Z,364
2018-01-13T08:24:45.111Z,372
2018-01-13T08:25:55.088Z,392
2018-01-13T08:27:04.806Z,420
2018-01-13T08:28:14.590Z,444
2018-01-13T08:29:24.559Z,472
2018-01-13T08:30:34.273Z,496
2018-01-13T08:31:43.989Z,520
2018-01-13T08:32:54.062Z,532
2018-01-13T08:34:03.506Z,548
2018-01-13T08:35:12.689Z,576
2018-01-13T08:36:22.399Z,608
2018-01-13T08:37:32.372Z,640
2018-01-13T08:38:42.079Z,664
2018-01-13T08:39:51.550Z,692
2018-01-13T08:41:01.524Z,720
2018-01-13T08:42:11.501Z,744
2018-01-13T08:43:21.213Z,752
2018-01-13T08:44:30.933Z,764
2018-01-13T08:45:40.643Z,784
2018-01-13T08:46:50.626Z,796
2018-01-13T08:48:00.602Z,808
2018-01-13T08:49:10.574Z,836
2018-01-13T08:50:20.282Z,860
2018-01-13T08:51:29.991Z,888
2018-01-13T08:52:39.701Z,920
2018-01-13T08:53:49.673Z,964
2018-01-13T08:54:59.645Z,1000
2018-01-13T08:56:09.359Z,1028
2018-01-13T08:57:19.066Z,1068
2018-01-13T08:58:28.775Z,1108
2018-01-13T08:59:38.479Z,1144
2018-01-13T09:00:48.461Z,1180
2018-01-13T09:01:57.913Z,1192
2018-01-13T09:03:07.621Z,1212
2018-01-13T09:04:17.601Z,1204
2018-01-13T09:05:27.306Z,1228
2018-01-13T09:06:37.392Z,1276
2018-01-13T09:07:47.107Z,1320
2018-01-13T09:08:56.820Z,1368
2018-01-13T09:10:06.793Z,1428
2018-01-13T09:11:16.505Z,1468
2018-01-13T09:12:26.482Z,1512
2018-01-13T09:13:35.659Z,1548
2018-01-13T09:14:45.641Z,1560
2018-01-13T09:15:55.615Z,1592
2018-01-13T09:17:05.591Z,1608
2018-01-13T09:18:15.035Z,1620
2018-01-13T09:19:25.067Z,1644
2018-01-13T09:20:34.251Z,1656
2018-01-13T09:21:43.998Z,1680
2018-01-13T09:22:53.974Z,1700
2018-01-13T09:24:03.682Z,1756
2018-01-13T09:25:13.657Z,1888
2018-01-13T09:26:23.369Z,1960
2018-01-13T09:27:33.078Z,1956
2018-01-13T09:28:42.259Z,1952
2018-01-13T09:29:52.235Z,1956
2018-01-13T09:31:02.254Z,1996
2018-01-13T09:32:11.697Z,2052
2018-01-13T09:33:21.682Z,2080
2018-01-13T09:34:31.155Z,2112
2018-01-13T09:35:41.131Z,2148
2018-01-13T09:36:51.103Z,2148
2018-01-13T09:38:01.079Z,2216
2018-01-13T09:39:10.789Z,2252
2018-01-13T09:40:20.501Z,2248
2018-01-13T09:41:30.507Z,2264
2018-01-13T09:42:40.485Z,2252
2018-01-13T09:43:50.203Z,2240
2018-01-13T09:45:00.295Z,2244
2018-01-13T09:46:10.010Z,2272
2018-01-13T09:47:20.038Z,2328
2018-01-13T09:48:30.021Z,2368
2018-01-13T09:49:39.732Z,2376
2018-01-13T09:50:49.709Z,2380
2018-01-13T09:51:59.422Z,2380
2018-01-13T09:53:09.397Z,2432
2018-01-13T09:54:19.367Z,2496
2018-01-13T09:55:29.345Z,2508
2018-01-13T09:56:39.056Z,2488
2018-01-13T09:57:48.774Z,2540
2018-01-13T09:58:58.745Z,2548
2018-01-13T10:00:08.194Z,2568
2018-01-13T10:01:18.180Z,2580
2018-01-13T10:02:28.155Z,2596
2018-01-13T10:03:38.358Z,2624
2018-01-13T10:04:48.149Z,2660
2018-01-13T10:05:58.127Z,2696
2018-01-13T10:07:07.864Z,2720
2018-01-13T10:08:17.575Z,2772
2018-01-13T10:09:27.551Z,2788
2018-01-13T10:10:37.530Z,2824
2018-01-13T10:11:47.143Z,2816
2018-01-13T10:12:56.866Z,2828
2018-01-13T10:14:06.582Z,2840
2018-01-13T10:15:16.025Z,2804
2018-01-13T10:16:26.037Z,2776
2018-01-13T10:17:36.059Z,2760
2018-01-13T10:18:46.031Z,2736
2018-01-13T10:19:55.749Z,2740
2018-01-13T10:21:05.738Z,2744
2018-01-13T10:22:15.201Z,2768
2018-01-13T10:23:25.066Z,2824
2018-01-13T10:24:34.789Z,2840
2018-01-13T10:25:44.508Z,2820
2018-01-13T10:26:53.957Z,2856
2018-01-13T10:28:03.414Z,2856
2018-01-13T10:29:12.598Z,2828
2018-01-13T10:30:22.362Z,2808
2018-01-13T10:31:31.805Z,2812
2018-01-13T10:32:41.784Z,2820
2018-01-13T10:33:51.759Z,2836
2018-01-13T10:35:01.790Z,2860
2018-01-13T10:36:11.763Z,2844
2018-01-13T10:37:21.735Z,2848
2018-01-13T10:38:31.444Z,2860
2018-01-13T10:39:41.161Z,2852
2018-01-13T10:40:51.139Z,2848
2018-01-13T10:42:00.849Z,2848
2018-01-13T10:43:10.823Z,2824
2018-01-13T10:44:20.802Z,2852
2018-01-13T10:45:30.517Z,2876
2018-01-13T10:46:39.967Z,2868
2018-01-13T10:47:49.979Z,2844
2018-01-13T10:48:59.961Z,2808
2018-01-13T10:50:09.938Z,2764
2018-01-13T10:51:19.912Z,2764
2018-01-13T10:52:29.658Z,2788
2018-01-13T10:53:39.371Z,2812
2018-01-13T10:54:49.348Z,2840
2018-01-13T10:55:59.058Z,2872
2018-01-13T10:57:08.506Z,2908
2018-01-13T10:58:17.954Z,2916
2018-01-13T10:59:27.670Z,2912
2018-01-13T11:00:37.118Z,2936
2018-01-13T11:01:46.831Z,2964
2018-01-13T11:02:56.856Z,3000
2018-01-13T11:04:06.572Z,3016
2018-01-13T11:05:16.283Z,3020
2018-01-13T11:06:26.254Z,3000
2018-01-13T11:07:36.231Z,2984
2018-01-13T11:08:45.938Z,2972
2018-01-13T11:09:55.913Z,2968
2018-01-13T11:11:05.622Z,2992
2018-01-13T11:12:15.412Z,3000
2018-01-13T11:13:25.128Z,2976
2018-01-13T11:14:34.840Z,2932
2018-01-13T11:15:44.815Z,2900
2018-01-13T11:16:54.790Z,2876
2018-01-13T11:18:04.770Z,2900
2018-01-13T11:19:14.792Z,2976
2018-01-13T11:20:24.766Z,3044
2018-01-13T11:21:34.479Z,3132
2018-01-13T11:22:44.473Z,3220
2018-01-13T11:23:54.187Z,3312
2018-01-13T11:25:04.167Z,3336
2018-01-13T11:26:13.611Z,3296
2018-01-13T11:27:23.581Z,3212
2018-01-13T11:28:33.290Z,3116
2018-01-13T11:29:43.264Z,2988
2018-01-13T11:30:53.039Z,2916
2018-01-13T11:32:03.013Z,2896
2018-01-13T11:33:12.032Z,2876
2018-01-13T11:34:21.750Z,2876
2018-01-13T11:35:31.213Z,2908
2018-01-13T11:36:40.932Z,2912
2018-01-13T11:37:50.661Z,2924
2018-01-13T11:39:00.476Z,2960
2018-01-13T11:40:10.188Z,3036
2018-01-13T11:41:19.907Z,3144
2018-01-13T11:42:29.882Z,3268
2018-01-13T11:43:39.330Z,3240
2018-01-13T11:44:49.303Z,3160
2018-01-13T11:45:58.487Z,3136
2018-01-13T11:47:07.939Z,3112
2018-01-13T11:48:17.918Z,3088
2018-01-13T11:49:27.898Z,3072
2018-01-13T11:50:37.344Z,3044
2018-01-13T11:51:47.057Z,3052
2018-01-13T11:52:57.031Z,3148
2018-01-13T11:54:07.055Z,3148
2018-01-13T11:55:16.505Z,3076
2018-01-13T11:56:26.480Z,2980
2018-01-13T11:57:36.195Z,2920
2018-01-13T11:58:46.023Z,2900
2018-01-13T11:59:55.751Z,2960
2018-01-13T12:01:05.729Z,3016
2018-01-13T12:02:15.180Z,3020
2018-01-13T12:03:24.891Z,2952
2018-01-13T12:04:34.781Z,2912
2018-01-13T12:05:44.501Z,2892
2018-01-13T12:06:54.213Z,2876
2018-01-13T12:08:03.971Z,2868
2018-01-13T12:09:13.683Z,2892
2018-01-13T12:10:23.392Z,2884
2018-01-13T12:11:33.107Z,2860
2018-01-13T12:12:43.086Z,2836
2018-01-13T12:13:52.265Z,2824
2018-01-13T12:15:01.977Z,2812
2018-01-13T12:16:11.697Z,2796
2018-01-13T12:17:21.412Z,2772
2018-01-13T12:18:31.124Z,2752
2018-01-13T12:19:41.101Z,2744
2018-01-13T12:20:50.812Z,2740
2018-01-13T12:22:00.787Z,2712
2018-01-13T12:23:10.498Z,2716
2018-01-13T12:24:20.479Z,2740
2018-01-13T12:25:30.241Z,2772
2018-01-13T12:26:39.950Z,2716
2018-01-13T12:27:49.661Z,2604
2018-01-13T12:28:59.127Z,2576
2018-01-13T12:30:08.314Z,2532
2018-01-13T12:31:18.298Z,2516
2018-01-13T12:32:28.274Z,2472
2018-01-13T12:33:38.247Z,2448
2018-01-13T12:34:47.695Z,2496
2018-01-13T12:35:57.408Z,2532
2018-01-13T12:37:07.122Z,2520
2018-01-13T12:38:17.104Z,2508
2018-01-13T12:39:26.851Z,2492
2018-01-13T12:40:36.564Z,2480
2018-01-13T12:41:46.285Z,2436
2018-01-13T12:42:56.009Z,2372
2018-01-13T12:44:05.456Z,2336
2018-01-13T12:45:14.900Z,2312
2018-01-13T12:46:24.349Z,2304
2018-01-13T12:47:34.378Z,2224
2018-01-13T12:48:44.353Z,2172
2018-01-13T12:49:54.331Z,2116
2018-01-13T12:51:04.312Z,2052
2018-01-13T12:52:14.297Z,2008
2018-01-13T12:53:23.742Z,1976
2018-01-13T12:54:33.455Z,1980
2018-01-13T12:55:42.941Z,1976
2018-01-13T12:56:52.391Z,1940
2018-01-13T12:58:02.101Z,1876
2018-01-13T12:59:12.131Z,1852
2018-01-13T13:00:22.112Z,1860
2018-01-13T13:01:31.835Z,1892
2018-01-13T13:02:41.280Z,1848
2018-01-13T13:03:51.253Z,1824
2018-01-13T13:05:00.965Z,1772
2018-01-13T13:06:10.724Z,1760
2018-01-13T13:07:20.438Z,1736
2018-01-13T13:08:30.417Z,1736
2018-01-13T13:09:40.391Z,1692
2018-01-13T13:10:50.371Z,1636
2018-01-13T13:12:00.352Z,1668
2018-01-13T13:13:10.063Z,1748
2018-01-13T13:14:19.517Z,1792
2018-01-13T13:15:29.493Z,1708
2018-01-13T13:16:38.960Z,1652
2018-01-13T13:17:48.938Z,1568
2018-01-13T13:18:58.918Z,1548
2018-01-13T13:20:08.682Z,1540
2018-01-13T13:21:18.396Z,1512
2018-01-13T13:22:28.103Z,1484
2018-01-13T13:23:38.191Z,1412
2018-01-13T13:24:48.166Z,1372
2018-01-13T13:25:57.616Z,1368
2018-01-13T13:27:07.325Z,1380
2018-01-13T13:28:16.507Z,1380
2018-01-13T13:29:26.482Z,1380
2018-01-13T13:30:35.672Z,1348
2018-01-13T13:31:45.647Z,1260
2018-01-13T13:32:55.357Z,1204
2018-01-13T13:34:04.805Z,1140
2018-01-13T13:35:14.780Z,1124
2018-01-13T13:36:24.489Z,1132
2018-01-13T13:37:33.933Z,1104
2018-01-13T13:38:43.643Z,1052
2018-01-13T13:39:53.355Z,1028
2018-01-13T13:41:03.341Z,1028
2018-01-13T13:42:13.316Z,1024
2018-01-13T13:43:23.296Z,996
2018-01-13T13:44:33.270Z,940
2018-01-13T13:45:43.034Z,884
2018-01-13T13:46:53.036Z,900
2018-01-13T13:48:03.201Z,928
2018-01-13T13:49:13.228Z,904
2018-01-13T13:50:23.210Z,856
2018-01-13T13:51:33.186Z,812
2018-01-13T13:52:42.895Z,748
2018-01-13T13:53:52.870Z,736
2018-01-13T13:55:02.583Z,748
2018-01-13T13:56:12.295Z,724
2018-01-13T13:57:22.034Z,680
2018-01-13T13:58:31.756Z,656
2018-01-13T13:59:41.209Z,640
2018-01-13T14:00:51.185Z,628
2018-01-13T14:02:00.913Z,620
2018-01-13T14:03:10.886Z,604
2018-01-13T14:04:20.865Z,588
2018-01-13T14:05:30.841Z,568
2018-01-13T14:06:40.026Z,548
2018-01-13T14:07:49.731Z,528
2018-01-13T14:08:59.704Z,516
2018-01-13T14:10:09.416Z,496
2018-01-13T14:11:19.390Z,468
2018-01-13T14:12:29.098Z,448
2018-01-13T14:13:40.820Z,424
2018-01-13T14:14:50.794Z,400
2018-01-13T14:16:00.866Z,380
2018-01-13T14:17:10.578Z,368
2018-01-13T14:18:20.298Z,356
2018-01-13T14:19:30.015Z,344
2018-01-13T14:20:39.741Z,320
2018-01-13T14:21:49.712Z,296
2018-01-13T14:22:59.689Z,276
2018-01-13T14:24:09.665Z,264
2018-01-13T14:25:19.641Z,248
2018-01-13T14:26:29.352Z,232
2018-01-13T14:27:39.328Z,220
2018-01-13T14:28:49.308Z,208
2018-01-13T14:29:59.283Z,200
2018-01-13T14:31:09.264Z,192
2018-01-13T14:32:18.709Z,184
2018-01-13T14:33:28.691Z,172
2018-01-13T14:34:38.199Z,164
2018-01-13T14:35:48.242Z,152
2018-01-13T14:36:57.962Z,144
2018-01-13T14:38:07.681Z,136
2018-01-13T14:39:17.706Z,128
2018-01-13T14:40:27.162Z,120
2018-01-13T14:41:36.603Z,112
2018-01-13T14:42:46.325Z,108
2018-01-13T14:43:56.356Z,100
2018-01-13T14:45:05.857Z,96
2018-01-13T14:46:15.881Z,92
2018-01-13T14:47:25.595Z,84
2018-01-13T14:48:35.327Z,76
2018-01-13T14:49:45.038Z,68
2018-01-13T14:50:54.870Z,64
2018-01-13T14:52:04.856Z,56
2018-01-13T14:53:14.572Z,52
2018-01-13T14:54:24.547Z,44
2018-01-13T14:55:34.002Z,40
2018-01-13T14:56:43.712Z,36
2018-01-13T14:57:53.687Z,32
2018-01-13T14:59:03.666Z,32
2018-01-13T15:00:12.850Z,32
2018-01-13T15:01:22.863Z,28
2018-01-13T15:02:32.572Z,20
2018-01-13T15:03:42.691Z,16
2018-01-13T15:04:52.667Z,16
2018-01-13T15:06:02.707Z,12
2018-01-13T15:07:12.416Z,12
2018-01-13T15:08:22.126Z,12
2018-01-13T15:09:31.836Z,8
2018-01-13T15:10:41.813Z,8
2018-01-13T15:11:51.786Z,8
2018-01-13T15:13:01.760Z,4
2018-01-13T15:14:11.204Z,4
2018-01-13T15:15:20.655Z,8
2018-01-13T15:16:30.639Z,4
2018-01-13T15:17:40.349Z,4
2018-01-13T15:18:50.064Z,0
2018-01-13T15:20:00.058Z,4
2018-01-13T15:21:09.784Z,0
2018-01-13T15:22:19.501Z,0
2018-01-13T15:23:29.481Z,4
2018-01-13T15:24:39.194Z,4
2018-01-13T15:25:49.198Z,0
2018-01-13T15:26:59.226Z,0
2018-01-13T15:28:09.211Z,0
2018-01-13T15:29:18.919Z,0
2018-01-13T15:30:28.630Z,0
2018-01-13T15:31:38.441Z,0
2018-01-13T15:32:48.154Z,0
2018-01-13T15:33:57.863Z,0
2018-01-13T15:35:07.311Z,0
2018-01-13T15:36:17.284Z,0
2018-01-13T15:37:26.730Z,0
2018-01-13T15:38:36.713Z,0
2018-01-13T15:39:46.426Z,0
2018-01-13T15:40:55.880Z,0
2018-01-13T15:42:05.348Z,0
2018-01-13T15:43:14.792Z,0
2018-01-13T15:44:24.501Z,0
2018-01-13T15:45:33.954Z,0
2018-01-13T15:46:43.661Z,0
2018-01-13T15:47:53.641Z,0
2018-01-13T15:49:03.352Z,0
2018-01-13T15:50:12.534Z,0
2018-01-13T15:51:22.512Z,0
2018-01-13T15:52:32.221Z,0
2018-01-13T15:53:41.938Z,0
2018-01-13T15:54:51.965Z,0
2018-01-13T15:56:01.945Z,0
2018-01-13T15:57:11.919Z,0
2018-01-13T15:58:21.631Z,0
2018-01-13T15:59:31.372Z,0
2018-01-13T16:00:41.085Z,0
2018-01-13T16:01:50.794Z,0
2018-01-13T16:03:00.776Z,0
2018-01-13T16:04:10.486Z,0
2018-01-13T16:05:20.207Z,0
2018-01-13T16:06:29.919Z,0
2018-01-13T16:07:39.895Z,0
2018-01-13T16:08:49.345Z,0
2018-01-13T16:09:59.319Z,0
2018-01-13T16:11:09.032Z,0
2018-01-13T16:12:18.241Z,0
2018-01-13T16:13:27.706Z,0
2018-01-13T16:14:37.685Z,0
2018-01-13T16:15:47.659Z,0
2018-01-13T16:16:57.635Z,0
2018-01-13T16:18:07.762Z,0
2018-01-13T16:19:17.737Z,0
2018-01-13T16:20:27.707Z,0
2018-01-13T16:21:37.418Z,0
2018-01-13T16:22:47.126Z,0
2018-01-13T16:23:56.840Z,0
2018-01-13T16:25:06.555Z,0
2018-01-13T16:26:16.266Z,0
2018-01-13T16:27:26.238Z,0
2018-01-13T16:28:35.946Z,0
2018-01-13T16:29:45.917Z,0
2018-01-13T16:30:55.894Z,0
2018-01-13T16:32:05.609Z,0